createdAt,value
2023-02-05T00:00:45.644Z,-1.20
2023-02-05T00:03:37.716Z,-1.03
2023-02-05T00:06:25.487Z,-1.03
2023-02-05T00:09:13.064Z,-1.24
2023-02-05T00:12:02.554Z,-1.18
2023-02-05T00:14:50.307Z,-1.17
2023-02-05T00:17:38.047Z,-1.12
2023-02-05T00:20:25.593Z,-1.11
2023-02-05T00:23:13.314Z,-1.46
2023-02-05T00:29:05.025Z,-1.44
2023-02-05T00:31:53.276Z,-1.31
2023-02-05T00:34:41.169Z,-1.42
2023-02-05T00:37:28.829Z,-1.33
2023-02-05T00:40:16.745Z,-1.31
2023-02-05T00:43:04.267Z,-1.32
2023-02-05T00:45:52.080Z,-1.32
2023-02-05T00:48:40.725Z,-1.20
2023-02-05T00:51:29.197Z,-1.38
2023-02-05T00:54:16.853Z,-1.39
2023-02-05T00:57:04.949Z,-1.58
2023-02-05T00:59:53.359Z,-1.37
2023-02-05T01:02:41.398Z,-1.57
2023-02-05T01:05:30.871Z,-1.41
2023-02-05T01:08:18.736Z,-1.49
2023-02-05T01:11:08.274Z,-1.45
2023-02-05T01:13:56.261Z,-1.40
2023-02-05T01:16:44.140Z,-1.47
2023-02-05T01:19:34.169Z,-1.47
2023-02-05T01:22:21.858Z,-1.50
2023-02-05T01:25:11.129Z,-1.59
2023-02-05T01:27:58.751Z,-1.54
2023-02-05T01:30:51.049Z,-1.51
2023-02-05T01:33:38.855Z,-1.59
2023-02-05T01:36:26.644Z,-1.64
2023-02-05T01:39:14.266Z,-1.54
2023-02-05T01:42:02.091Z,-1.58
2023-02-05T01:45:23.668Z,-1.61
2023-02-05T01:48:11.496Z,-1.75
2023-02-05T01:51:04.603Z,-1.52
2023-02-05T01:53:52.524Z,-1.49
2023-02-05T01:56:45.418Z,-1.74
2023-02-05T01:59:36.876Z,-1.70
2023-02-05T02:02:25.639Z,-1.53
2023-02-05T02:05:17.056Z,-1.54
2023-02-05T02:08:04.999Z,-1.44
2023-02-05T02:10:56.978Z,-1.54
2023-02-05T02:13:46.937Z,-1.60
2023-02-05T02:16:39.714Z,-1.61
2023-02-05T02:19:54.284Z,-1.51
2023-02-05T02:22:52.390Z,-1.53
2023-02-05T02:26:03.113Z,-1.39
2023-02-05T02:28:54.994Z,-1.63
2023-02-05T02:31:48.154Z,-1.57
2023-02-05T02:34:45.370Z,-1.66
2023-02-05T02:37:40.399Z,-1.70
2023-02-05T02:40:52.036Z,-1.70
2023-02-05T02:43:54.788Z,-1.69
2023-02-05T02:46:51.283Z,-1.65
2023-02-05T02:49:44.329Z,-1.73
2023-02-05T02:52:37.284Z,-1.83
2023-02-05T02:55:25.507Z,-1.77
2023-02-05T02:58:47.538Z,-1.72
2023-02-05T03:01:42.573Z,-1.72
2023-02-05T03:04:34.874Z,-1.72
2023-02-05T03:08:06.886Z,-1.68
2023-02-05T03:11:14.989Z,-1.58
2023-02-05T03:14:04.950Z,-1.70
2023-02-05T03:16:57.551Z,-1.71
2023-02-05T03:19:58.147Z,-1.72
2023-02-05T03:22:46.662Z,-1.84
2023-02-05T03:25:34.617Z,-1.63
2023-02-05T03:28:24.197Z,-1.60
2023-02-05T03:31:21.768Z,-1.69
2023-02-05T03:34:38.804Z,-1.64
2023-02-05T03:37:36.544Z,-1.52
2023-02-05T03:40:38.550Z,-1.37
2023-02-05T03:43:44.338Z,-1.41
2023-02-05T03:46:59.961Z,-1.44
2023-02-05T03:49:59.064Z,-1.57
2023-02-05T03:52:55.327Z,-1.29
2023-02-05T03:55:49.240Z,-1.44
2023-02-05T03:58:42.257Z,-1.49
2023-02-05T04:01:30.951Z,-1.64
2023-02-05T04:04:19.947Z,-1.44
2023-02-05T04:07:07.825Z,-1.44
2023-02-05T04:09:56.865Z,-1.53
2023-02-05T04:12:45.070Z,-1.46
2023-02-05T04:15:33.233Z,-1.53
2023-02-05T04:18:23.689Z,-1.51
2023-02-05T04:21:11.798Z,-1.58
2023-02-05T04:24:02.217Z,-1.80
2023-02-05T04:26:51.284Z,-1.71
2023-02-05T04:29:40.038Z,-1.69
2023-02-05T04:32:28.298Z,-1.64
2023-02-05T04:35:16.348Z,-1.78
2023-02-05T04:38:04.791Z,-1.65
2023-02-05T04:40:52.547Z,-1.55
2023-02-05T04:43:40.287Z,-1.81
2023-02-05T04:46:27.890Z,-1.69
2023-02-05T04:49:15.921Z,-1.71
2023-02-05T04:52:06.078Z,-1.71
2023-02-05T04:54:53.835Z,-1.96
2023-02-05T04:57:41.491Z,-1.69
2023-02-05T05:00:29.344Z,-1.84
2023-02-05T05:03:17.004Z,-1.78
2023-02-05T05:06:05.884Z,-1.75
2023-02-05T05:08:57.510Z,-1.73
2023-02-05T05:11:48.345Z,-1.58
2023-02-05T05:14:35.967Z,-1.96
2023-02-05T05:17:27.062Z,-1.77
2023-02-05T05:20:14.689Z,-1.74
2023-02-05T05:23:02.501Z,-1.76
2023-02-05T05:25:50.292Z,-1.79
2023-02-05T05:28:38.760Z,-1.75
2023-02-05T05:31:28.925Z,-1.71
2023-02-05T05:34:16.780Z,-1.82
2023-02-05T05:37:04.676Z,-1.72
2023-02-05T05:40:10.776Z,-1.64
2023-02-05T05:43:17.097Z,-1.72
2023-02-05T05:46:05.942Z,-1.71
2023-02-05T05:48:56.068Z,-1.67
2023-02-05T05:51:43.837Z,-1.66
2023-02-05T05:54:31.602Z,-1.79
2023-02-05T05:57:19.478Z,-1.69
2023-02-05T06:00:07.569Z,-1.76
2023-02-05T06:03:04.008Z,-1.66
2023-02-05T06:05:51.770Z,-1.59
2023-02-05T06:08:42.216Z,-1.75
2023-02-05T06:11:32.683Z,-1.55
2023-02-05T06:14:22.075Z,-1.52
2023-02-05T06:17:09.767Z,-1.80
2023-02-05T06:20:00.573Z,-1.55
2023-02-05T06:22:48.497Z,-1.82
2023-02-05T06:25:36.449Z,-1.46
2023-02-05T06:28:24.967Z,-1.46
2023-02-05T06:31:14.697Z,-1.38
2023-02-05T06:34:02.443Z,-1.48
2023-02-05T06:36:50.246Z,-1.40
2023-02-05T06:39:37.991Z,-1.45
2023-02-05T06:42:26.219Z,-1.50
2023-02-05T06:45:14.595Z,-1.39
2023-02-05T06:48:05.544Z,-1.25
2023-02-05T06:50:53.401Z,-0.98
2023-02-05T06:53:41.214Z,-0.84
2023-02-05T06:56:31.978Z,-0.57
2023-02-05T06:59:20.128Z,-0.39
2023-02-05T07:02:09.088Z,-0.61
2023-02-05T07:04:56.868Z,-0.54
2023-02-05T07:07:44.526Z,-0.35
2023-02-05T07:10:35.696Z,-0.46
2023-02-05T07:13:28.207Z,-0.51
2023-02-05T07:16:18.300Z,-0.41
2023-02-05T07:19:08.310Z,-0.47
2023-02-05T07:21:56.106Z,-0.43
2023-02-05T07:24:47.547Z,-0.30
2023-02-05T07:27:37.060Z,-0.11
2023-02-05T07:30:24.715Z,-0.20
2023-02-05T07:33:12.600Z,-0.14
2023-02-05T07:36:04.814Z,-0.04
2023-02-05T07:38:52.626Z,0.07
2023-02-05T07:41:40.279Z,0.31
2023-02-05T07:44:28.145Z,-0.09
2023-02-05T07:47:15.832Z,-0.31
2023-02-05T07:50:05.113Z,-0.23
2023-02-05T07:52:52.712Z,-0.02
2023-02-05T07:55:41.177Z,0.23
2023-02-05T07:58:29.099Z,0.52
2023-02-05T08:01:17.086Z,0.35
2023-02-05T08:04:05.118Z,0.15
2023-02-05T08:06:52.962Z,0.37
2023-02-05T08:09:44.202Z,0.55
2023-02-05T08:12:32.010Z,0.68
2023-02-05T08:15:19.734Z,0.55
2023-02-05T08:18:07.535Z,0.08
2023-02-05T08:20:55.707Z,0.62
2023-02-05T08:23:46.423Z,0.72
2023-02-05T08:26:34.119Z,1.01
2023-02-05T08:29:22.123Z,0.88
2023-02-05T08:32:09.756Z,0.37
2023-02-05T08:34:59.711Z,0.84
2023-02-05T08:37:47.447Z,1.18
2023-02-05T08:40:36.159Z,0.82
2023-02-05T08:43:24.369Z,0.39
2023-02-05T08:46:14.093Z,1.34
2023-02-05T08:49:01.691Z,1.69
2023-02-05T08:51:49.594Z,1.78
2023-02-05T08:54:37.334Z,2.47
2023-02-05T08:57:31.545Z,2.62
2023-02-05T09:00:20.647Z,1.74
2023-02-05T09:03:09.045Z,1.81
2023-02-05T09:06:00.119Z,1.87
2023-02-05T09:08:47.878Z,2.14
2023-02-05T09:11:35.628Z,2.21
2023-02-05T09:14:24.288Z,2.85
2023-02-05T09:17:14.496Z,3.52
2023-02-05T09:20:02.398Z,3.84
2023-02-05T09:22:51.161Z,3.28
2023-02-05T09:25:42.800Z,3.04
2023-02-05T09:28:30.826Z,3.38
2023-02-05T09:31:21.313Z,2.95
2023-02-05T09:34:09.028Z,3.34
2023-02-05T09:37:01.793Z,2.71
2023-02-05T09:43:37.352Z,1.94
2023-02-05T09:46:53.768Z,2.22
2023-02-05T09:49:50.530Z,1.80
2023-02-05T09:52:40.811Z,1.95
2023-02-05T09:55:32.401Z,2.50
2023-02-05T09:58:28.892Z,2.60
2023-02-05T10:01:33.232Z,2.72
2023-02-05T10:04:21.173Z,2.07
2023-02-05T10:07:39.283Z,1.78
2023-02-05T10:10:40.475Z,1.51
2023-02-05T10:13:37.922Z,1.66
2023-02-05T10:17:01.312Z,1.57
2023-02-05T10:19:51.881Z,1.57
2023-02-05T10:23:13.895Z,1.07
2023-02-05T10:26:15.690Z,1.11
2023-02-05T10:29:09.023Z,1.96
2023-02-05T10:32:12.968Z,2.67
2023-02-05T10:35:21.189Z,3.24
2023-02-05T10:38:18.052Z,2.39
2023-02-05T10:41:15.664Z,1.31
2023-02-05T10:44:31.818Z,1.82
2023-02-05T10:47:36.045Z,1.59
2023-02-05T10:50:44.016Z,1.50
2023-02-05T10:53:33.017Z,1.84
2023-02-05T10:56:22.205Z,2.54
2023-02-05T10:59:20.173Z,2.91
2023-02-05T11:02:12.536Z,2.75
2023-02-05T11:05:02.319Z,2.14
2023-02-05T11:07:53.429Z,2.12
2023-02-05T11:10:41.123Z,2.51
2023-02-05T11:13:30.355Z,3.37
2023-02-05T11:16:18.149Z,2.92
2023-02-05T11:19:25.462Z,3.70
2023-02-05T11:22:27.046Z,3.81
2023-02-05T11:25:26.633Z,3.85
2023-02-05T11:28:20.887Z,2.90
2023-02-05T11:31:28.340Z,2.49
2023-02-05T11:34:17.880Z,3.26
2023-02-05T11:37:05.958Z,3.15
2023-02-05T11:39:56.954Z,3.18
2023-02-05T11:42:53.251Z,2.75
2023-02-05T11:45:41.009Z,2.76
2023-02-05T11:48:34.086Z,2.75
2023-02-05T11:51:41.974Z,2.01
2023-02-05T11:54:33.433Z,1.92
2023-02-05T11:57:24.712Z,1.74
2023-02-05T12:00:13.296Z,1.58
2023-02-05T12:03:18.677Z,1.49
2023-02-05T12:06:20.924Z,2.20
2023-02-05T12:09:12.796Z,2.44
2023-02-05T12:12:18.838Z,2.47
2023-02-05T12:15:41.452Z,1.84
2023-02-05T12:18:34.823Z,2.04
2023-02-05T12:21:31.988Z,2.40
2023-02-05T12:24:34.929Z,2.11
2023-02-05T12:27:34.648Z,1.56
2023-02-05T12:30:43.498Z,0.94
2023-02-05T12:33:57.621Z,1.10
2023-02-05T12:36:47.049Z,1.31
2023-02-05T12:39:45.899Z,0.61
2023-02-05T12:42:59.959Z,0.40
2023-02-05T12:45:59.508Z,0.21
2023-02-05T12:48:53.310Z,-0.16
2023-02-05T12:52:22.072Z,-0.32
2023-02-05T12:55:36.870Z,-0.35
2023-02-05T12:58:34.185Z,0.04
2023-02-05T13:01:32.496Z,-0.08
2023-02-05T13:04:32.847Z,0.15
2023-02-05T13:07:26.423Z,-0.06
2023-02-05T13:10:24.000Z,-0.10
2023-02-05T13:13:20.922Z,-0.27
2023-02-05T13:16:16.240Z,-0.18
2023-02-05T13:19:34.350Z,-0.05
2023-02-05T13:22:45.766Z,0.23
2023-02-05T13:26:02.589Z,0.34
2023-02-05T13:29:02.231Z,-0.03
2023-02-05T13:31:55.959Z,0.25
2023-02-05T13:34:44.224Z,0.08
2023-02-05T13:38:11.131Z,0.17
2023-02-05T13:41:06.704Z,-0.04
2023-02-05T13:44:14.346Z,0.02
2023-02-05T13:47:29.678Z,0.10
2023-02-05T13:50:42.602Z,-0.04
2023-02-05T13:53:53.614Z,-0.25
2023-02-05T13:56:51.014Z,-0.30
2023-02-05T13:59:43.672Z,-0.40
2023-02-05T14:02:49.731Z,-0.32
2023-02-05T14:05:43.202Z,-0.23
2023-02-05T14:08:37.989Z,-0.29
2023-02-05T14:11:25.915Z,-0.48
2023-02-05T14:14:29.354Z,-0.33
2023-02-05T14:17:29.005Z,-0.34
2023-02-05T14:20:26.097Z,-0.52
2023-02-05T14:23:16.693Z,-0.48
2023-02-05T14:26:04.374Z,-0.24
2023-02-05T14:29:03.548Z,-0.36
2023-02-05T14:31:54.039Z,-0.23
2023-02-05T14:34:41.636Z,-0.17
2023-02-05T14:37:50.166Z,-0.68
2023-02-05T14:40:38.978Z,-0.64
2023-02-05T14:43:34.362Z,-0.44
2023-02-05T14:46:43.319Z,-0.50
2023-02-05T14:49:34.114Z,-0.44
2023-02-05T14:52:33.344Z,-0.79
2023-02-05T14:55:25.493Z,-0.80
2023-02-05T14:58:39.937Z,-0.61
2023-02-05T15:01:33.611Z,-0.72
2023-02-05T15:04:44.876Z,-0.72
2023-02-05T15:07:37.501Z,-0.80
2023-02-05T15:10:30.009Z,-0.93
2023-02-05T15:13:20.683Z,-1.00
2023-02-05T15:16:20.219Z,-1.07
2023-02-05T15:19:16.250Z,-1.12
2023-02-05T15:22:09.232Z,-1.16
2023-02-05T15:24:57.334Z,-1.10
2023-02-05T15:27:55.606Z,-1.17
2023-02-05T15:31:02.796Z,-1.23
2023-02-05T15:34:00.130Z,-1.34
2023-02-05T15:36:55.149Z,-1.35
2023-02-05T15:39:59.626Z,-1.37
2023-02-05T15:42:55.322Z,-1.41
2023-02-05T15:45:45.368Z,-1.51
2023-02-05T15:48:36.850Z,-1.63
2023-02-05T15:51:35.441Z,-1.48
2023-02-05T15:54:27.264Z,-1.64
2023-02-05T15:57:27.964Z,-1.62
2023-02-05T16:00:26.230Z,-1.77
2023-02-05T16:03:32.844Z,-1.62
2023-02-05T16:06:22.466Z,-1.72
2023-02-05T16:09:30.776Z,-1.76
2023-02-05T16:15:20.163Z,-1.68
2023-02-05T16:18:17.529Z,-1.92
2023-02-05T16:21:28.867Z,-1.86
2023-02-05T16:24:27.647Z,-1.86
2023-02-05T16:27:23.344Z,-1.77
2023-02-05T16:30:44.001Z,-1.69
2023-02-05T16:34:00.393Z,-1.81
2023-02-05T16:36:50.645Z,-1.73
2023-02-05T16:39:44.837Z,-1.83
2023-02-05T16:42:38.578Z,-1.96
2023-02-05T16:45:31.582Z,-1.71
2023-02-05T16:48:51.209Z,-2.07
2023-02-05T16:52:07.473Z,-1.84
2023-02-05T16:54:55.682Z,-1.86
2023-02-05T16:57:49.834Z,-1.89
2023-02-05T17:00:41.020Z,-1.80
2023-02-05T17:03:36.591Z,-1.77
2023-02-05T17:06:25.046Z,-1.74
2023-02-05T17:09:36.338Z,-2.39
2023-02-05T17:12:38.724Z,-1.61
2023-02-05T17:15:34.990Z,-1.87
2023-02-05T17:18:30.176Z,-1.81
2023-02-05T17:21:28.038Z,-1.83
2023-02-05T17:24:31.158Z,-1.77
2023-02-05T17:27:29.791Z,-1.89
2023-02-05T17:30:19.528Z,-1.74
2023-02-05T17:33:12.233Z,-1.69
2023-02-05T17:36:00.165Z,-1.75
2023-02-05T17:38:49.184Z,-1.74
2023-02-05T17:42:00.185Z,-1.55
2023-02-05T17:44:51.401Z,-1.78
2023-02-05T17:47:42.256Z,-1.70
2023-02-05T17:50:30.200Z,-1.91
2023-02-05T17:53:21.191Z,-1.95
2023-02-05T17:56:09.601Z,-1.92
2023-02-05T17:58:58.600Z,-1.87
2023-02-05T18:01:47.494Z,-2.05
2023-02-05T18:04:35.341Z,-2.12
2023-02-05T18:07:54.025Z,-2.24
2023-02-05T18:10:41.767Z,-2.05
2023-02-05T18:13:29.488Z,-2.06
2023-02-05T18:16:22.482Z,-2.17
2023-02-05T18:19:10.715Z,-2.12
2023-02-05T18:22:03.519Z,-2.61
2023-02-05T18:24:54.028Z,-2.06
2023-02-05T18:27:44.414Z,-2.09
2023-02-05T18:30:34.424Z,-2.24
2023-02-05T18:33:25.665Z,-2.24
2023-02-05T18:36:25.516Z,-2.14
2023-02-05T18:39:14.622Z,-2.21
2023-02-05T18:42:02.399Z,-2.40
2023-02-05T18:44:57.650Z,-2.64
2023-02-05T18:47:45.423Z,-2.56
2023-02-05T18:50:33.682Z,-2.52
2023-02-05T18:53:26.226Z,-2.56
2023-02-05T18:56:16.719Z,-2.64
2023-02-05T18:59:09.260Z,-2.60
2023-02-05T19:01:57.584Z,-2.46
2023-02-05T19:04:45.978Z,-2.48
2023-02-05T19:07:37.127Z,-2.56
2023-02-05T19:10:24.844Z,-2.64
2023-02-05T19:13:13.496Z,-2.61
2023-02-05T19:16:12.881Z,-2.58
2023-02-05T19:19:00.693Z,-2.56
2023-02-05T19:21:57.798Z,-2.60
2023-02-05T19:24:45.616Z,-2.70
2023-02-05T19:27:35.466Z,-2.78
2023-02-05T19:30:23.385Z,-2.72
2023-02-05T19:33:11.186Z,-2.61
2023-02-05T19:36:00.737Z,-2.87
2023-02-05T19:38:49.756Z,-2.69
2023-02-05T19:41:41.592Z,-2.81
2023-02-05T19:44:31.216Z,-3.04
2023-02-05T19:47:23.320Z,-3.07
2023-02-05T19:50:13.553Z,-2.89
2023-02-05T19:53:01.400Z,-3.08
2023-02-05T19:55:49.421Z,-2.78
2023-02-05T19:58:41.283Z,-2.78
2023-02-05T20:01:31.441Z,-2.85
2023-02-05T20:04:28.896Z,-2.68
2023-02-05T20:07:16.691Z,-2.55
2023-02-05T20:10:06.313Z,-2.97
2023-02-05T20:12:54.146Z,-2.89
2023-02-05T20:15:41.927Z,-2.75
2023-02-05T20:18:30.360Z,-2.84
2023-02-05T20:21:21.687Z,-2.92
2023-02-05T20:24:17.215Z,-2.83
2023-02-05T20:27:05.042Z,-2.97
2023-02-05T20:30:11.171Z,-2.80
2023-02-05T20:32:58.983Z,-2.82
2023-02-05T20:35:46.718Z,-2.77
2023-02-05T20:38:44.278Z,-2.79
2023-02-05T20:41:31.903Z,-2.71
2023-02-05T20:44:19.949Z,-3.42
2023-02-05T20:47:10.515Z,-2.94
2023-02-05T20:50:00.789Z,-2.85
2023-02-05T20:52:48.511Z,-2.90
2023-02-05T20:55:36.894Z,-2.91
2023-02-05T20:58:24.670Z,-2.97
2023-02-05T21:01:20.355Z,-3.04
2023-02-05T21:04:09.960Z,-3.07
2023-02-05T21:06:58.603Z,-3.11
2023-02-05T21:09:47.199Z,-3.18
2023-02-05T21:12:34.956Z,-3.18
2023-02-05T21:15:23.889Z,-3.50
2023-02-05T21:18:13.098Z,-3.45
2023-02-05T21:21:16.499Z,-3.23
2023-02-05T21:24:07.404Z,-3.37
2023-02-05T21:26:55.058Z,-3.37
2023-02-05T21:29:43.862Z,-3.25
2023-02-05T21:32:33.322Z,-3.09
2023-02-05T21:35:23.519Z,-3.07
2023-02-05T21:38:11.212Z,-3.05
2023-02-05T21:40:58.882Z,-3.08
2023-02-05T21:43:59.478Z,-3.07
2023-02-05T21:48:16.160Z,-3.12
2023-02-05T21:56:15.370Z,-3.22
2023-02-05T21:59:03.168Z,-3.29
2023-02-05T22:01:51.134Z,-3.25
2023-02-05T22:04:38.988Z,-3.30
2023-02-05T22:07:26.755Z,-3.25
2023-02-05T22:10:14.671Z,-3.33
2023-02-05T22:13:02.323Z,-3.20
2023-02-05T22:15:50.117Z,-3.21
2023-02-05T22:18:38.643Z,-3.38
2023-02-05T22:21:46.199Z,-3.32
2023-02-05T22:24:34.042Z,-3.44
2023-02-05T22:27:21.955Z,-3.43
2023-02-05T22:30:10.300Z,-3.39
2023-02-05T22:32:58.986Z,-3.43
2023-02-05T22:35:52.452Z,-3.46
2023-02-05T22:38:41.761Z,-3.57
2023-02-05T22:41:34.963Z,-3.79
2023-02-05T22:44:22.603Z,-3.66
2023-02-05T22:47:10.260Z,-3.47
2023-02-05T22:49:57.875Z,-3.51
2023-02-05T22:52:45.539Z,-3.62
2023-02-05T22:55:37.348Z,-3.60
2023-02-05T22:58:25.181Z,-3.73
2023-02-05T23:01:17.892Z,-3.81
2023-02-05T23:04:07.501Z,-3.85
2023-02-05T23:06:55.177Z,-4.10
2023-02-05T23:09:43.129Z,-3.98
2023-02-05T23:12:30.802Z,-4.03
2023-02-05T23:15:21.445Z,-4.28
2023-02-05T23:18:09.213Z,-4.13
2023-02-05T23:24:08.843Z,-4.41
2023-02-05T23:27:02.413Z,-4.30
2023-02-05T23:29:50.214Z,-4.42
2023-02-05T23:32:38.824Z,-4.26
2023-02-05T23:35:28.656Z,-4.22
2023-02-05T23:38:16.362Z,-4.23
2023-02-05T23:41:05.039Z,-4.31
2023-02-05T23:43:55.281Z,-4.56
2023-02-05T23:46:46.745Z,-4.68
2023-02-05T23:49:36.482Z,-4.32
2023-02-05T23:52:24.230Z,-4.31
2023-02-05T23:55:11.816Z,-4.23
2023-02-05T23:57:59.475Z,-4.57
